This is the latest recevied weather packets stored in our database for station/object IW5CI-13. If no packets are shown the sender has not sent any weather packets the latest 1 day(s).
| Time | Temp. | Humidity | Pressure | Rain* | Wind** | Luminosity | Snow |
|---|---|---|---|---|---|---|---|
| 1778078302 | 17.22° C | 36% | 1010.5 hPa | - | - | - | - |
| 1778077097 | 18.33° C | 34% | 1010.7 hPa | - | - | - | - |
| 1778072276 | 16.11° C | 40% | 1010.8 hPa | - | - | - | - |
| 1778071071 | 16.11° C | 40% | 1011 hPa | - | - | - | - |
| 1778063840 | 17.78° C | 36% | 1011.5 hPa | - | - | - | - |
| 1778062635 | 17.22° C | 36% | 1011.7 hPa | - | - | - | - |
| 1778057814 | 15.56° C | 39% | 1011.6 hPa | - | - | - | - |
| 1778055403 | 12.78° C | 50% | 1011.5 hPa | - | - | - | - |
| 1778052993 | 11.67° C | 52% | 1011.5 hPa | - | - | - | - |
| 1778049378 | 12.78° C | 47% | 1011.2 hPa | - | - | - | - |
| 1778048172 | 12.22° C | 48% | 1011.2 hPa | - | - | - | - |
| 1778044557 | 12.78° C | 48% | 1011.4 hPa | - | - | - | - |
| 1778043352 | 13.33° C | 48% | 1011.3 hPa | - | - | - | - |
| 1778042147 | 12.78° C | 49% | 1011.5 hPa | - | - | - | - |
| 1778040942 | 13.89° C | 47% | 1011.7 hPa | - | - | - | - |
| 1778039736 | 13.33° C | 49% | 1012 hPa | - | - | - | - |
| 1778038530 | 12.78° C | 50% | 1012 hPa | - | - | - | - |
| 1778036119 | 13.33° C | 51% | 1011.8 hPa | - | - | - | - |
| 1778034913 | 13.89° C | 49% | 1011.9 hPa | - | - | - | - |
| 1778031296 | 13.33° C | 51% | 1011.8 hPa | - | - | - | - |
| 1778030090 | 13.33° C | 50% | 1012 hPa | - | - | - | - |
| 1778028885 | 13.33° C | 50% | 1012.4 hPa | - | - | - | - |
| 1778027680 | 12.78° C | 52% | 1012.7 hPa | - | - | - | - |
| 1778026475 | 13.33° C | 50% | 1012.7 hPa | - | - | - | - |
| 1778018039 | 12.78° C | 49% | 1013.7 hPa | - | - | - | - |
* Rain since midnight (hover to see other rain measurements)
** Current wind speed in m/s (hover to see current wind gust speed)